createdAt,value
2018-08-03T00:00:31.466Z,24.20
2018-08-03T00:01:31.467Z,24.15
2018-08-03T00:02:31.449Z,24.12
2018-08-03T00:03:31.491Z,24.05
2018-08-03T00:04:31.447Z,24.09
2018-08-03T00:05:31.434Z,24.03
2018-08-03T00:06:31.428Z,24.12
2018-08-03T00:07:31.437Z,23.97
2018-08-03T00:08:31.485Z,24.02
2018-08-03T00:09:31.667Z,24.05
2018-08-03T00:10:31.413Z,23.90
2018-08-03T00:11:31.410Z,24.00
2018-08-03T00:12:31.411Z,23.93
2018-08-03T00:13:31.396Z,23.95
2018-08-03T00:14:31.425Z,23.84
2018-08-03T00:15:31.421Z,23.84
2018-08-03T00:16:31.388Z,23.80
2018-08-03T00:17:31.371Z,23.87
2018-08-03T00:18:31.376Z,23.84
2018-08-03T00:19:31.363Z,23.73
2018-08-03T00:20:31.365Z,23.75
2018-08-03T00:21:31.360Z,23.79
2018-08-03T00:22:31.346Z,23.75
2018-08-03T00:23:31.345Z,23.87
2018-08-03T00:24:31.330Z,23.70
2018-08-03T00:25:31.341Z,23.72
2018-08-03T00:26:31.346Z,23.79
2018-08-03T00:27:31.317Z,23.72
2018-08-03T00:28:31.364Z,23.69
2018-08-03T00:29:31.300Z,23.72
2018-08-03T00:30:31.310Z,23.69
2018-08-03T00:31:31.299Z,23.63
2018-08-03T00:32:31.333Z,23.68
2018-08-03T00:33:31.295Z,23.60
2018-08-03T00:34:31.267Z,23.60
2018-08-03T00:35:31.289Z,23.54
2018-08-03T00:36:31.271Z,23.60
2018-08-03T00:37:31.288Z,23.61
2018-08-03T00:38:31.315Z,23.51
2018-08-03T00:39:31.268Z,23.51
2018-08-03T00:40:31.258Z,23.46
2018-08-03T00:41:31.236Z,23.35
2018-08-03T00:42:31.241Z,23.32
2018-08-03T00:43:31.226Z,23.28
2018-08-03T00:44:31.257Z,23.32
2018-08-03T00:45:31.219Z,23.22
2018-08-03T00:46:31.219Z,23.07
2018-08-03T00:47:31.243Z,23.05
2018-08-03T00:48:31.195Z,23.12
2018-08-03T00:49:31.204Z,23.10
2018-08-03T00:50:31.201Z,23.22
2018-08-03T00:51:31.185Z,23.17
2018-08-03T00:52:31.175Z,23.10
2018-08-03T00:53:31.174Z,23.10
2018-08-03T00:54:31.160Z,23.22
2018-08-03T00:55:31.274Z,23.19
2018-08-03T00:56:31.184Z,23.17
2018-08-03T00:57:31.137Z,23.17
2018-08-03T00:58:31.168Z,23.19
2018-08-03T00:59:31.152Z,23.17
2018-08-03T01:00:31.299Z,23.25
2018-08-03T01:01:31.114Z,23.17
2018-08-03T01:02:31.120Z,23.22
2018-08-03T01:03:31.149Z,23.20
2018-08-03T01:04:31.136Z,23.12
2018-08-03T01:05:31.306Z,23.15
2018-08-03T01:06:31.289Z,23.31
2018-08-03T01:07:31.121Z,23.12
2018-08-03T01:08:31.074Z,23.07
2018-08-03T01:09:31.076Z,23.17
2018-08-03T01:10:31.224Z,23.13
2018-08-03T01:11:31.069Z,23.22
2018-08-03T01:12:31.880Z,23.12
2018-08-03T01:13:31.062Z,23.10
2018-08-03T01:14:31.040Z,23.15
2018-08-03T01:15:31.046Z,23.13
2018-08-03T01:16:31.538Z,23.05
2018-08-03T01:17:31.056Z,22.98
2018-08-03T01:18:31.022Z,22.98
2018-08-03T01:19:31.017Z,23.00
2018-08-03T01:20:31.014Z,22.98
2018-08-03T01:21:31.027Z,22.90
2018-08-03T01:22:31.010Z,22.95
2018-08-03T01:23:30.997Z,23.01
2018-08-03T01:24:31.296Z,22.91
2018-08-03T01:25:30.986Z,22.97
2018-08-03T01:26:30.991Z,22.97
2018-08-03T01:27:30.964Z,23.02
2018-08-03T01:28:30.959Z,22.91
2018-08-03T01:29:30.951Z,22.90
2018-08-03T01:30:30.960Z,23.01
2018-08-03T01:31:30.934Z,22.85
2018-08-03T01:32:30.936Z,22.98
2018-08-03T01:33:30.955Z,23.04
2018-08-03T01:34:31.027Z,22.94
2018-08-03T01:35:30.926Z,22.94
2018-08-03T01:36:30.923Z,22.90
2018-08-03T01:37:30.903Z,22.91
2018-08-03T01:38:30.892Z,22.95
2018-08-03T01:39:30.924Z,23.04
2018-08-03T01:40:30.884Z,22.90
2018-08-03T01:41:30.881Z,22.91
2018-08-03T01:42:30.876Z,22.92
2018-08-03T01:43:30.877Z,22.92
2018-08-03T01:44:30.909Z,22.91
2018-08-03T01:45:30.870Z,22.76
2018-08-03T01:46:30.859Z,22.80
2018-08-03T01:47:30.850Z,22.79
2018-08-03T01:48:30.843Z,22.72
2018-08-03T01:49:30.829Z,22.62
2018-08-03T01:50:30.887Z,22.67
2018-08-03T01:51:30.831Z,22.64
2018-08-03T01:52:30.825Z,22.76
2018-08-03T01:53:30.813Z,22.75
2018-08-03T01:54:30.801Z,22.73
2018-08-03T01:55:30.797Z,22.72
2018-08-03T01:56:30.820Z,22.64
2018-08-03T01:57:30.785Z,22.65
2018-08-03T01:58:30.779Z,22.67
2018-08-03T01:59:30.765Z,22.61
2018-08-03T02:00:30.769Z,22.67
2018-08-03T02:01:30.762Z,22.61
2018-08-03T02:02:30.749Z,22.62
2018-08-03T02:03:30.750Z,22.58
2018-08-03T02:04:30.733Z,22.62
2018-08-03T02:05:30.751Z,22.47
2018-08-03T02:06:30.782Z,22.46
2018-08-03T02:07:30.706Z,22.37
2018-08-03T02:08:30.720Z,22.35
2018-08-03T02:09:30.705Z,22.33
2018-08-03T02:10:30.702Z,22.30
2018-08-03T02:11:30.694Z,22.36
2018-08-03T02:12:30.694Z,22.36
2018-08-03T02:13:30.678Z,22.46
2018-08-03T02:14:30.667Z,22.42
2018-08-03T02:15:30.667Z,22.40
2018-08-03T02:16:30.690Z,22.40
2018-08-03T02:17:30.647Z,22.40
2018-08-03T02:18:30.652Z,22.46
2018-08-03T02:19:30.650Z,22.46
2018-08-03T02:20:30.635Z,22.45
2018-08-03T02:21:30.644Z,22.28
2018-08-03T02:22:30.619Z,22.28
2018-08-03T02:23:30.619Z,22.20
2018-08-03T02:24:30.612Z,22.20
2018-08-03T02:25:30.601Z,22.15
2018-08-03T02:26:30.605Z,22.21
2018-08-03T02:27:30.600Z,22.24
2018-08-03T02:28:30.578Z,22.31
2018-08-03T02:29:30.582Z,22.28
2018-08-03T02:30:30.605Z,22.33
2018-08-03T02:31:30.586Z,22.30
2018-08-03T02:32:30.545Z,22.30
2018-08-03T02:33:30.552Z,22.36
2018-08-03T02:34:30.577Z,22.39
2018-08-03T02:35:30.543Z,22.37
2018-08-03T02:36:30.559Z,22.36
2018-08-03T02:37:30.528Z,22.36
2018-08-03T02:38:30.525Z,22.39
2018-08-03T02:39:31.485Z,22.40
2018-08-03T02:40:30.550Z,22.33
2018-08-03T02:41:30.488Z,22.36
2018-08-03T02:42:30.497Z,22.39
2018-08-03T02:43:30.496Z,22.39
2018-08-03T02:44:30.487Z,22.37
2018-08-03T02:45:30.473Z,22.42
2018-08-03T02:46:30.509Z,22.27
2018-08-03T02:47:30.463Z,22.31
2018-08-03T02:48:30.463Z,22.25
2018-08-03T02:49:30.456Z,22.22
2018-08-03T02:50:30.472Z,22.12
2018-08-03T02:51:30.440Z,22.12
2018-08-03T02:52:30.442Z,22.20
2018-08-03T02:53:30.459Z,22.17
2018-08-03T02:54:30.413Z,22.20
2018-08-03T02:55:30.410Z,22.17
2018-08-03T02:56:30.400Z,22.21
2018-08-03T02:57:30.395Z,22.15
2018-08-03T02:58:30.457Z,22.10
2018-08-03T02:59:30.379Z,22.12
2018-08-03T03:00:30.375Z,22.15
2018-08-03T03:01:30.368Z,22.14
2018-08-03T03:02:30.359Z,22.24
2018-08-03T03:03:30.350Z,22.14
2018-08-03T03:04:30.363Z,22.14
2018-08-03T03:05:30.364Z,22.17
2018-08-03T03:06:30.340Z,22.18
2018-08-03T03:07:30.419Z,22.09
2018-08-03T03:08:30.321Z,22.07
2018-08-03T03:09:30.528Z,22.09
2018-08-03T03:10:30.376Z,21.94
2018-08-03T03:11:30.293Z,21.94
2018-08-03T03:12:30.294Z,21.91
2018-08-03T03:13:30.286Z,21.84
2018-08-03T03:14:30.273Z,21.74
2018-08-03T03:15:30.274Z,21.62
2018-08-03T03:16:30.275Z,21.62
2018-08-03T03:17:30.295Z,21.56
2018-08-03T03:18:30.266Z,21.59
2018-08-03T03:19:30.249Z,21.62
2018-08-03T03:20:30.233Z,21.72
2018-08-03T03:21:30.240Z,21.74
2018-08-03T03:22:30.225Z,21.74
2018-08-03T03:23:30.229Z,21.79
2018-08-03T03:24:30.218Z,21.75
2018-08-03T03:25:30.211Z,21.77
2018-08-03T03:26:30.236Z,21.71
2018-08-03T03:27:30.217Z,21.61
2018-08-03T03:28:30.172Z,21.64
2018-08-03T03:29:30.195Z,21.58
2018-08-03T03:30:30.214Z,21.59
2018-08-03T03:31:30.165Z,21.62
2018-08-03T03:32:30.160Z,21.68
2018-08-03T03:33:30.202Z,21.62
2018-08-03T03:34:30.146Z,21.59
2018-08-03T03:35:30.157Z,21.77
2018-08-03T03:36:30.133Z,21.71
2018-08-03T03:37:30.126Z,21.71
2018-08-03T03:38:30.117Z,21.59
2018-08-03T03:39:30.118Z,21.62
2018-08-03T03:40:30.102Z,21.77
2018-08-03T03:41:30.447Z,21.68
2018-08-03T03:42:30.089Z,21.69
2018-08-03T03:43:30.089Z,21.67
2018-08-03T03:44:30.071Z,21.72
2018-08-03T03:45:30.110Z,21.68
2018-08-03T03:46:30.051Z,21.84
2018-08-03T03:47:30.109Z,21.79
2018-08-03T03:48:30.055Z,21.88
2018-08-03T03:49:30.041Z,21.82
2018-08-03T03:50:30.036Z,21.84
2018-08-03T03:51:30.025Z,21.83
2018-08-03T03:52:30.018Z,21.88
2018-08-03T03:53:30.039Z,21.82
2018-08-03T03:54:30.014Z,21.86
2018-08-03T03:55:30.009Z,21.79
2018-08-03T03:56:29.982Z,21.77
2018-08-03T03:57:29.993Z,21.84
2018-08-03T03:58:30.095Z,21.82
2018-08-03T03:59:29.973Z,21.83
2018-08-03T04:00:29.969Z,21.80
2018-08-03T04:01:29.960Z,21.79
2018-08-03T04:02:29.950Z,21.82
2018-08-03T04:03:29.954Z,21.83
2018-08-03T04:04:29.943Z,21.80
2018-08-03T04:05:29.929Z,21.84
2018-08-03T04:06:29.910Z,21.74
2018-08-03T04:07:29.915Z,21.65
2018-08-03T04:08:29.901Z,21.50
2018-08-03T04:09:29.936Z,21.56
2018-08-03T04:10:29.895Z,21.49
2018-08-03T04:11:29.875Z,21.64
2018-08-03T04:12:29.869Z,21.61
2018-08-03T04:13:29.878Z,21.62
2018-08-03T04:14:29.872Z,21.65
2018-08-03T04:15:29.860Z,21.59
2018-08-03T04:16:29.866Z,21.62
2018-08-03T04:17:29.854Z,21.56
2018-08-03T04:18:29.839Z,21.49
2018-08-03T04:19:29.830Z,21.47
2018-08-03T04:20:29.825Z,21.44
2018-08-03T04:21:29.854Z,21.46
2018-08-03T04:22:29.811Z,21.56
2018-08-03T04:23:29.801Z,21.46
2018-08-03T04:24:29.814Z,21.46
2018-08-03T04:25:29.795Z,21.47
2018-08-03T04:26:29.788Z,21.47
2018-08-03T04:27:29.840Z,21.47
2018-08-03T04:28:29.774Z,21.44
2018-08-03T04:29:29.762Z,21.37
2018-08-03T04:30:29.749Z,21.46
2018-08-03T04:31:29.738Z,21.44
2018-08-03T04:32:29.736Z,21.42
2018-08-03T04:33:29.737Z,21.44
2018-08-03T04:34:29.724Z,21.46
2018-08-03T04:35:29.714Z,21.50
2018-08-03T04:36:29.706Z,21.47
2018-08-03T04:37:29.707Z,21.49
2018-08-03T04:38:29.711Z,21.49
2018-08-03T04:39:29.730Z,21.50
2018-08-03T04:40:29.685Z,21.50
2018-08-03T04:41:29.687Z,21.56
2018-08-03T04:42:29.705Z,21.65
2018-08-03T04:43:29.667Z,21.65
2018-08-03T04:44:29.689Z,21.65
2018-08-03T04:45:29.641Z,21.72
2018-08-03T04:46:29.675Z,21.83
2018-08-03T04:47:29.629Z,21.75
2018-08-03T04:48:29.719Z,21.83
2018-08-03T04:49:29.618Z,21.83
2018-08-03T04:50:29.651Z,21.83
2018-08-03T04:51:29.604Z,21.83
2018-08-03T04:52:29.589Z,21.98
2018-08-03T04:53:29.638Z,21.88
2018-08-03T04:54:29.587Z,21.94
2018-08-03T04:55:29.588Z,21.88
2018-08-03T04:56:29.578Z,21.84
2018-08-03T04:57:29.559Z,21.90
2018-08-03T04:58:29.561Z,21.94
2018-08-03T04:59:29.604Z,21.92
2018-08-03T05:00:29.558Z,21.96
2018-08-03T05:01:29.543Z,21.96
2018-08-03T05:02:29.566Z,21.96
2018-08-03T05:03:29.537Z,21.99
2018-08-03T05:04:29.525Z,21.96
2018-08-03T05:05:29.505Z,22.07
2018-08-03T05:06:29.517Z,22.09
2018-08-03T05:07:29.526Z,22.10
2018-08-03T05:08:29.513Z,22.10
2018-08-03T05:09:29.485Z,22.15
2018-08-03T05:10:29.478Z,22.17
2018-08-03T05:11:29.486Z,22.17
2018-08-03T05:12:29.469Z,22.18
2018-08-03T05:13:29.489Z,22.18
2018-08-03T05:14:29.437Z,22.15
2018-08-03T05:15:29.514Z,22.24
2018-08-03T05:16:29.434Z,22.22
2018-08-03T05:17:29.427Z,22.25
2018-08-03T05:18:29.433Z,22.27
2018-08-03T05:19:29.418Z,22.39
2018-08-03T05:20:29.402Z,22.36
2018-08-03T05:21:29.403Z,22.35
2018-08-03T05:22:29.431Z,22.54
2018-08-03T05:23:29.395Z,22.54
2018-08-03T05:24:29.377Z,22.45
2018-08-03T05:25:29.369Z,22.54
2018-08-03T05:26:29.393Z,22.67
2018-08-03T05:27:29.369Z,22.57
2018-08-03T05:28:29.358Z,22.58
2018-08-03T05:29:29.347Z,22.64
2018-08-03T05:30:29.344Z,22.73
2018-08-03T05:31:29.393Z,22.73
2018-08-03T05:32:29.326Z,22.73
2018-08-03T05:33:29.315Z,22.80
2018-08-03T05:34:29.313Z,22.76
2018-08-03T05:35:29.370Z,22.83
2018-08-03T05:36:29.304Z,22.90
2018-08-03T05:37:29.361Z,22.91
2018-08-03T05:38:29.287Z,22.85
2018-08-03T05:39:29.284Z,22.82
2018-08-03T05:40:29.275Z,22.90
2018-08-03T05:41:29.260Z,22.94
2018-08-03T05:42:29.327Z,22.85
2018-08-03T05:43:29.261Z,22.82
2018-08-03T05:44:29.241Z,22.82
2018-08-03T05:45:29.285Z,22.83
2018-08-03T05:46:29.266Z,22.92
2018-08-03T05:47:29.262Z,22.85
2018-08-03T05:48:29.221Z,22.94
2018-08-03T05:49:29.210Z,22.90
2018-08-03T05:50:29.225Z,22.94
2018-08-03T05:51:29.213Z,23.05
2018-08-03T05:52:29.217Z,23.04
2018-08-03T05:53:29.187Z,23.07
2018-08-03T05:54:29.191Z,23.10
2018-08-03T05:55:29.223Z,23.12
2018-08-03T05:56:29.176Z,23.23
2018-08-03T05:57:29.160Z,23.12
2018-08-03T05:58:29.162Z,23.22
2018-08-03T05:59:29.160Z,23.17
2018-08-03T06:00:29.207Z,23.27
2018-08-03T06:01:29.142Z,23.42
2018-08-03T06:02:29.139Z,23.33
2018-08-03T06:03:29.137Z,23.40
2018-08-03T06:04:29.126Z,23.48
2018-08-03T06:05:29.117Z,23.46
2018-08-03T06:06:29.187Z,23.51
2018-08-03T06:07:29.121Z,23.47
2018-08-03T06:08:29.128Z,23.48
2018-08-03T06:09:29.150Z,23.50
2018-08-03T06:10:29.101Z,23.55
2018-08-03T06:11:29.082Z,23.55
2018-08-03T06:12:29.084Z,23.63
2018-08-03T06:13:29.091Z,23.63
2018-08-03T06:14:29.071Z,23.68
2018-08-03T06:15:29.067Z,23.70
2018-08-03T06:16:29.055Z,23.79
2018-08-03T06:17:29.111Z,23.76
2018-08-03T06:18:29.043Z,23.70
2018-08-03T06:19:29.045Z,23.78
2018-08-03T06:20:29.033Z,23.69
2018-08-03T06:21:29.024Z,23.69
2018-08-03T06:22:29.026Z,23.72
2018-08-03T06:23:29.054Z,23.78
2018-08-03T06:24:29.025Z,23.87
2018-08-03T06:25:29.008Z,23.83
2018-08-03T06:26:29.001Z,23.84
2018-08-03T06:27:28.998Z,23.95
2018-08-03T06:28:29.106Z,23.94
2018-08-03T06:29:29.007Z,23.91
2018-08-03T06:30:28.975Z,24.00
2018-08-03T06:31:28.973Z,23.93
2018-08-03T06:32:28.976Z,23.95
2018-08-03T06:33:28.984Z,24.02
2018-08-03T06:34:28.950Z,24.02
2018-08-03T06:35:28.946Z,24.00
2018-08-03T06:36:28.940Z,24.13
2018-08-03T06:37:28.943Z,24.13
2018-08-03T06:38:28.942Z,24.16
2018-08-03T06:39:28.954Z,24.20
2018-08-03T06:40:28.935Z,24.20
2018-08-03T06:41:28.925Z,24.18
2018-08-03T06:42:28.927Z,24.27
2018-08-03T06:43:28.947Z,24.24
2018-08-03T06:44:28.937Z,24.28
2018-08-03T06:45:28.905Z,24.28
2018-08-03T06:46:28.900Z,24.22
2018-08-03T06:47:28.898Z,24.21
2018-08-03T06:48:28.957Z,24.25
2018-08-03T06:49:28.902Z,24.34
2018-08-03T06:50:28.872Z,24.35
2018-08-03T06:51:28.874Z,24.37
2018-08-03T06:52:28.863Z,24.35
2018-08-03T06:53:28.863Z,24.34
2018-08-03T06:54:28.921Z,24.45
2018-08-03T06:55:28.842Z,24.37
2018-08-03T06:56:28.846Z,24.45
2018-08-03T06:57:28.852Z,24.40
2018-08-03T06:58:28.833Z,24.52
2018-08-03T06:59:28.834Z,24.46
2018-08-03T07:00:28.835Z,24.52
2018-08-03T07:01:28.812Z,24.49
2018-08-03T07:02:28.818Z,24.58
2018-08-03T07:03:28.809Z,24.61
2018-08-03T07:04:28.841Z,24.65
2018-08-03T07:05:28.830Z,24.64
2018-08-03T07:06:28.794Z,24.69
2018-08-03T07:07:28.780Z,24.68
2018-08-03T07:08:28.826Z,24.77
2018-08-03T07:09:28.792Z,24.76
2018-08-03T07:10:28.766Z,24.81
2018-08-03T07:11:28.829Z,24.84
2018-08-03T07:12:28.777Z,24.84
2018-08-03T07:13:28.766Z,24.90
2018-08-03T07:14:28.795Z,24.88
2018-08-03T07:15:28.761Z,24.99
2018-08-03T07:16:28.740Z,24.99
2018-08-03T07:17:28.752Z,25.02
2018-08-03T07:18:28.748Z,25.13
2018-08-03T07:19:28.743Z,25.09
2018-08-03T07:20:28.830Z,25.09
2018-08-03T07:21:28.734Z,25.14
2018-08-03T07:22:28.755Z,25.20
2018-08-03T07:23:28.709Z,25.13
2018-08-03T07:24:28.704Z,25.10
2018-08-03T07:25:28.706Z,25.24
2018-08-03T07:26:28.717Z,25.28
2018-08-03T07:27:28.724Z,25.30
2018-08-03T07:28:28.697Z,25.36
2018-08-03T07:29:28.848Z,25.43
2018-08-03T07:30:28.702Z,25.55
2018-08-03T07:31:28.708Z,25.46
2018-08-03T07:32:28.719Z,25.50
2018-08-03T07:33:28.674Z,25.52
2018-08-03T07:34:28.666Z,25.50
2018-08-03T07:35:28.657Z,25.58
2018-08-03T07:36:28.660Z,25.55
2018-08-03T07:37:28.726Z,25.64
2018-08-03T07:38:28.649Z,25.64
2018-08-03T07:39:28.654Z,25.55
2018-08-03T07:40:28.645Z,25.57
2018-08-03T07:41:28.634Z,25.65
2018-08-03T07:42:28.639Z,25.67
2018-08-03T07:43:28.694Z,25.70
2018-08-03T07:44:28.637Z,25.64
2018-08-03T07:45:28.624Z,25.75
2018-08-03T07:46:28.621Z,25.79
2018-08-03T07:47:28.615Z,25.82
2018-08-03T07:48:28.630Z,25.76
2018-08-03T07:49:28.666Z,25.79
2018-08-03T07:50:28.605Z,25.87
2018-08-03T07:51:28.606Z,25.87
2018-08-03T07:52:28.629Z,25.91
2018-08-03T07:53:28.589Z,25.95
2018-08-03T07:54:28.591Z,25.85
2018-08-03T07:55:28.618Z,26.01
2018-08-03T07:56:28.600Z,25.94
2018-08-03T07:57:28.571Z,25.99
2018-08-03T07:58:29.031Z,25.99
2018-08-03T07:59:29.335Z,26.13
2018-08-03T08:00:29.471Z,26.12
2018-08-03T08:01:28.665Z,26.17
2018-08-03T08:02:28.553Z,26.05
2018-08-03T08:03:28.551Z,26.15
2018-08-03T08:04:28.561Z,26.23
2018-08-03T08:05:28.545Z,26.18
2018-08-03T08:06:28.571Z,26.29
2018-08-03T08:07:28.549Z,26.37
2018-08-03T08:08:28.539Z,26.32
2018-08-03T08:09:28.576Z,26.26
2018-08-03T08:10:28.528Z,26.40
2018-08-03T08:11:28.572Z,26.35
2018-08-03T08:12:28.507Z,26.36
2018-08-03T08:13:28.831Z,26.47
2018-08-03T08:14:28.520Z,26.48
2018-08-03T08:15:28.504Z,26.52
2018-08-03T08:16:28.516Z,26.54
2018-08-03T08:17:28.556Z,26.54
2018-08-03T08:18:28.503Z,26.54
2018-08-03T08:19:28.494Z,26.54
2018-08-03T08:20:28.490Z,26.51
2018-08-03T08:21:28.490Z,26.62
2018-08-03T08:22:28.482Z,26.62
2018-08-03T08:23:28.531Z,26.70
2018-08-03T08:24:28.469Z,26.80
2018-08-03T08:25:28.472Z,26.80
2018-08-03T08:26:28.461Z,26.87
2018-08-03T08:27:28.465Z,26.88
2018-08-03T08:28:28.498Z,26.92
2018-08-03T08:29:28.526Z,26.97
2018-08-03T08:30:28.448Z,26.99
2018-08-03T08:31:28.683Z,26.92
2018-08-03T08:32:28.448Z,27.12
2018-08-03T08:33:28.433Z,27.09
2018-08-03T08:34:28.448Z,27.19
2018-08-03T08:35:28.473Z,27.19
2018-08-03T08:36:28.431Z,27.28
2018-08-03T08:37:28.545Z,27.32
2018-08-03T08:38:29.079Z,27.29
2018-08-03T08:39:28.420Z,27.39
2018-08-03T08:40:28.444Z,27.32
2018-08-03T08:41:28.569Z,27.31
2018-08-03T08:42:28.424Z,27.49
2018-08-03T08:43:28.435Z,27.50
2018-08-03T08:44:28.434Z,27.49
2018-08-03T08:45:28.402Z,27.50
2018-08-03T08:46:28.391Z,27.62
2018-08-03T08:47:28.392Z,27.72
2018-08-03T08:48:28.679Z,27.62
2018-08-03T08:49:28.512Z,27.69
2018-08-03T08:50:28.560Z,27.72
2018-08-03T08:51:28.382Z,27.70
2018-08-03T08:52:28.385Z,27.78
2018-08-03T08:53:28.400Z,27.74
2018-08-03T08:54:28.384Z,27.70
2018-08-03T08:55:28.373Z,27.78
2018-08-03T08:56:28.371Z,27.81
2018-08-03T08:57:28.367Z,27.77
2018-08-03T08:58:28.370Z,27.79
2018-08-03T08:59:28.395Z,27.88
2018-08-03T09:00:28.361Z,27.92
2018-08-03T09:01:28.425Z,28.09
2018-08-03T09:02:28.363Z,28.30
2018-08-03T09:03:28.355Z,28.40
2018-08-03T09:04:28.361Z,28.64
2018-08-03T09:05:28.354Z,28.93
2018-08-03T09:06:28.352Z,29.04
2018-08-03T09:07:28.389Z,29.21
2018-08-03T09:08:28.364Z,29.36
2018-08-03T09:09:28.359Z,29.60
2018-08-03T09:10:28.352Z,29.85
2018-08-03T09:11:28.859Z,30.13
2018-08-03T09:12:29.112Z,30.26
2018-08-03T09:13:28.346Z,30.31
2018-08-03T09:14:28.347Z,30.35
2018-08-03T09:15:28.342Z,30.46
2018-08-03T09:16:28.331Z,30.47
2018-08-03T09:17:28.373Z,30.58
2018-08-03T09:18:28.437Z,30.98
2018-08-03T09:19:28.348Z,31.32
2018-08-03T09:20:28.347Z,31.73
2018-08-03T09:21:28.340Z,32.00
2018-08-03T09:22:28.347Z,32.30
2018-08-03T09:23:28.376Z,32.67
2018-08-03T09:24:28.359Z,32.97
2018-08-03T09:25:28.345Z,33.29
2018-08-03T09:26:28.353Z,33.38
2018-08-03T09:27:28.352Z,33.59
2018-08-03T09:28:28.432Z,33.63
2018-08-03T09:29:28.351Z,33.78
2018-08-03T09:30:28.364Z,34.02
2018-08-03T09:31:28.357Z,34.16
2018-08-03T09:32:28.363Z,34.27
2018-08-03T09:33:28.397Z,34.43
2018-08-03T09:34:28.367Z,34.53
2018-08-03T09:35:28.433Z,34.80
2018-08-03T09:36:28.391Z,35.06
2018-08-03T09:37:28.378Z,35.36
2018-08-03T09:38:28.384Z,35.70
2018-08-03T09:39:28.389Z,35.96
2018-08-03T09:40:28.435Z,36.16
2018-08-03T09:41:28.402Z,36.31
2018-08-03T09:42:29.244Z,36.44
2018-08-03T09:43:28.410Z,36.59
2018-08-03T09:44:28.412Z,36.81
2018-08-03T09:45:28.458Z,36.49
2018-08-03T09:46:28.431Z,36.28
2018-08-03T09:47:28.433Z,36.16
2018-08-03T09:48:28.442Z,36.08
2018-08-03T09:49:28.453Z,36.16
2018-08-03T09:50:28.471Z,36.15
2018-08-03T09:51:28.460Z,36.41
2018-08-03T09:52:28.461Z,36.54
2018-08-03T09:53:28.470Z,36.73
2018-08-03T09:54:28.556Z,36.88
2018-08-03T09:55:28.530Z,36.87
2018-08-03T09:56:28.491Z,37.07
2018-08-03T09:57:28.488Z,37.10
2018-08-03T09:58:28.496Z,37.25
2018-08-03T09:59:28.511Z,37.63
2018-08-03T10:00:28.506Z,37.79
2018-08-03T10:01:28.524Z,38.07
2018-08-03T10:02:28.530Z,38.16
2018-08-03T10:03:28.537Z,38.32
2018-08-03T10:04:28.560Z,38.53
2018-08-03T10:05:28.787Z,38.57
2018-08-03T10:06:28.663Z,38.61
2018-08-03T10:07:28.616Z,38.88
2018-08-03T10:08:28.578Z,38.98
2018-08-03T10:09:28.587Z,38.69
2018-08-03T10:10:28.663Z,38.76
2018-08-03T10:11:28.616Z,38.79
2018-08-03T10:12:28.607Z,38.83
2018-08-03T10:13:28.622Z,38.98
2018-08-03T10:14:28.629Z,39.10
2018-08-03T10:15:28.684Z,39.25
2018-08-03T10:16:28.659Z,39.30
2018-08-03T10:17:28.668Z,39.26
2018-08-03T10:18:28.669Z,39.25
2018-08-03T10:19:28.686Z,39.36
2018-08-03T10:20:28.691Z,39.45
2018-08-03T10:21:28.760Z,39.10
2018-08-03T10:22:28.780Z,38.54
2018-08-03T10:23:28.717Z,38.22
2018-08-03T10:24:28.729Z,38.31
2018-08-03T10:25:28.753Z,38.54
2018-08-03T10:26:28.736Z,38.79
2018-08-03T10:27:28.795Z,39.01
2018-08-03T10:28:28.776Z,39.29
2018-08-03T10:29:28.786Z,39.47
2018-08-03T10:30:28.813Z,39.84
2018-08-03T10:31:28.851Z,40.12
2018-08-03T10:32:28.797Z,40.46
2018-08-03T10:33:28.809Z,40.67
2018-08-03T10:34:28.847Z,40.89
2018-08-03T10:35:36.816Z,40.87
2018-08-03T10:36:28.856Z,40.95
2018-08-03T10:37:28.901Z,40.99
2018-08-03T10:38:29.742Z,40.74
2018-08-03T10:39:28.869Z,40.00
2018-08-03T10:40:28.885Z,39.43
2018-08-03T10:41:28.896Z,38.95
2018-08-03T10:42:28.901Z,38.52
2018-08-03T10:43:28.914Z,38.28
2018-08-03T10:44:28.949Z,38.12
2018-08-03T10:45:28.935Z,38.07
2018-08-03T10:46:28.965Z,38.13
2018-08-03T10:47:28.950Z,38.03
2018-08-03T10:48:28.948Z,38.16
2018-08-03T10:49:28.995Z,38.06
2018-08-03T10:50:28.998Z,37.96
2018-08-03T10:51:29.039Z,38.00
2018-08-03T10:52:28.990Z,38.12
2018-08-03T10:53:28.993Z,38.23
2018-08-03T10:54:29.003Z,37.98
2018-08-03T10:55:29.048Z,37.78
2018-08-03T10:56:29.015Z,37.57
2018-08-03T10:57:29.083Z,37.49
2018-08-03T10:58:29.030Z,37.49
2018-08-03T10:59:29.028Z,37.50
2018-08-03T11:00:29.046Z,37.64
2018-08-03T11:02:29.067Z,37.25
2018-08-03T11:03:29.067Z,36.94
2018-08-03T11:04:29.247Z,36.54
2018-08-03T11:05:29.106Z,36.12
2018-08-03T11:06:29.208Z,35.78
2018-08-03T11:07:29.148Z,35.74
2018-08-03T11:08:29.183Z,35.60
2018-08-03T11:09:29.400Z,35.47
2018-08-03T11:10:29.086Z,35.36
2018-08-03T11:11:29.097Z,35.21
2018-08-03T11:12:29.094Z,35.06
2018-08-03T11:13:29.126Z,35.04
2018-08-03T11:14:29.124Z,34.89
2018-08-03T11:15:29.115Z,34.81
2018-08-03T11:16:29.107Z,34.82
2018-08-03T11:17:29.117Z,34.75
2018-08-03T11:18:29.126Z,34.72
2018-08-03T11:19:29.132Z,34.61
2018-08-03T11:20:29.234Z,34.61
2018-08-03T11:21:29.146Z,34.52
2018-08-03T11:22:29.282Z,34.44
2018-08-03T11:23:29.175Z,34.50
2018-08-03T11:24:29.140Z,34.54
2018-08-03T11:25:29.146Z,34.53
2018-08-03T11:26:29.141Z,34.61
2018-08-03T11:27:29.145Z,34.54
2018-08-03T11:28:29.157Z,34.44
2018-08-03T11:29:29.157Z,34.42
2018-08-03T11:30:29.156Z,34.50
2018-08-03T11:31:30.860Z,34.61
2018-08-03T11:32:29.167Z,34.64
2018-08-03T11:33:29.189Z,34.77
2018-08-03T11:34:29.157Z,34.84
2018-08-03T11:35:29.195Z,34.88
2018-08-03T11:36:29.320Z,35.04
2018-08-03T11:37:29.179Z,35.22
2018-08-03T11:38:29.183Z,35.26
2018-08-03T11:39:29.196Z,35.58
2018-08-03T11:40:29.182Z,35.96
2018-08-03T11:41:29.181Z,36.28
2018-08-03T11:42:29.191Z,36.54
2018-08-03T11:43:29.196Z,37.00
2018-08-03T11:44:29.257Z,37.22
2018-08-03T11:45:29.201Z,37.50
2018-08-03T11:46:29.204Z,37.74
2018-08-03T11:47:29.227Z,38.01
2018-08-03T11:48:29.390Z,38.03
2018-08-03T11:49:29.418Z,38.23
2018-08-03T11:50:29.465Z,38.26
2018-08-03T11:51:29.238Z,38.46
2018-08-03T11:52:29.248Z,38.65
2018-08-03T11:53:29.247Z,38.98
2018-08-03T11:54:29.312Z,39.21
2018-08-03T11:55:29.313Z,39.13
2018-08-03T11:56:29.260Z,39.14
2018-08-03T11:57:29.328Z,39.07
2018-08-03T11:58:29.283Z,39.04
2018-08-03T11:59:29.285Z,38.95
2018-08-03T12:00:29.290Z,38.93
2018-08-03T12:01:29.329Z,38.95
2018-08-03T12:02:29.304Z,38.91
2018-08-03T12:03:29.310Z,38.98
2018-08-03T12:04:29.314Z,39.17
2018-08-03T12:05:29.330Z,39.14
2018-08-03T12:06:29.378Z,39.26
2018-08-03T12:07:29.466Z,39.29
2018-08-03T12:08:29.347Z,39.48
2018-08-03T12:09:29.342Z,39.44
2018-08-03T12:10:29.528Z,39.69
2018-08-03T12:11:29.400Z,39.86
2018-08-03T12:12:29.399Z,39.88
2018-08-03T12:13:29.394Z,39.96
2018-08-03T12:14:29.427Z,39.88
2018-08-03T12:15:29.581Z,39.97
2018-08-03T12:16:29.404Z,39.97
2018-08-03T12:17:29.407Z,39.97
2018-08-03T12:18:29.456Z,40.10
2018-08-03T12:19:29.444Z,40.12
2018-08-03T12:20:29.432Z,39.94
2018-08-03T12:21:29.441Z,39.59
2018-08-03T12:22:29.473Z,39.29
2018-08-03T12:23:29.524Z,39.01
2018-08-03T12:24:29.456Z,38.79
2018-08-03T12:25:29.470Z,38.65
2018-08-03T12:26:29.473Z,38.54
2018-08-03T12:27:29.511Z,38.52
2018-08-03T12:28:29.474Z,38.46
2018-08-03T12:29:29.524Z,38.13
2018-08-03T12:30:29.493Z,38.07
2018-08-03T12:31:29.536Z,37.82
2018-08-03T12:32:29.496Z,37.63
2018-08-03T12:33:29.511Z,37.55
2018-08-03T12:34:29.539Z,37.40
2018-08-03T12:35:29.571Z,37.22
2018-08-03T12:36:29.527Z,37.10
2018-08-03T12:37:29.527Z,36.81
2018-08-03T12:38:29.524Z,36.65
2018-08-03T12:39:29.587Z,36.57
2018-08-03T12:40:29.545Z,36.47
2018-08-03T12:41:29.648Z,36.50
2018-08-03T12:42:30.873Z,36.44
2018-08-03T12:45:33.994Z,35.84
2018-08-03T12:46:29.725Z,35.77
2018-08-03T12:47:40.878Z,35.58
2018-08-03T12:48:29.291Z,35.38
2018-08-03T12:49:31.834Z,35.23
2018-08-03T12:50:28.552Z,35.15
2018-08-03T12:51:28.350Z,35.06
2018-08-03T12:52:28.359Z,35.09
2018-08-03T12:53:28.322Z,35.10
2018-08-03T12:54:28.328Z,35.14
2018-08-03T12:55:29.824Z,35.03